Terminal Aerodrome Forecast
Issued by NWS St Louis, MO

Home | Current Version | Previous Version | Text Only | Print | Product List | Glossary On
Versions: 1 2 3 4 5 6 7 8 9 10 11 12 13 14 15 16 17 18 19 20 21 22 23
573
FTUS43 KLSX 221720
TAFSTL
TAF
KSTL 221720Z 2218/2324 08014KT P6SM VCSH OVC060
     FM222300 07012KT 6SM -SHRA OVC050
     FM230400 07011KT 6SM -SHRA OVC030
     FM231200 04009KT P6SM VCSH OVC025
     FM231800 04009KT P6SM OVC025=

USA.gov is the U.S. government's official web portal to all federal, state and local government web resources and services.